createdAt,value
2016-08-22T00:00:56.054Z,0
2016-08-22T00:01:57.031Z,0
2016-08-22T00:02:56.038Z,0
2016-08-22T00:03:56.062Z,0
2016-08-22T00:04:56.035Z,0
2016-08-22T00:05:56.019Z,0
2016-08-22T00:06:56.032Z,0
2016-08-22T00:07:56.029Z,0
2016-08-22T00:08:56.116Z,0
2016-08-22T00:09:58.113Z,0
2016-08-22T00:10:56.257Z,0
2016-08-22T00:11:55.991Z,0
2016-08-22T00:12:56.006Z,0
2016-08-22T00:13:55.999Z,0
2016-08-22T00:14:56.047Z,0
2016-08-22T00:15:55.985Z,0
2016-08-22T00:16:55.969Z,0
2016-08-22T00:17:57.791Z,0
2016-08-22T00:18:56.625Z,0
2016-08-22T00:19:57.253Z,0
2016-08-22T00:20:55.956Z,0
2016-08-22T00:21:56.009Z,0
2016-08-22T00:22:55.961Z,0
2016-08-22T00:23:55.944Z,0
2016-08-22T00:24:55.963Z,0
2016-08-22T00:25:55.935Z,0
2016-08-22T00:26:55.958Z,0
2016-08-22T00:27:55.922Z,0
2016-08-22T00:28:56.447Z,0
2016-08-22T00:29:57.072Z,0
2016-08-22T00:30:56.271Z,0
2016-08-22T00:31:56.051Z,0
2016-08-22T00:32:55.879Z,0
2016-08-22T00:33:56.908Z,0
2016-08-22T00:34:55.863Z,0
2016-08-22T00:35:55.888Z,0
2016-08-22T00:36:55.876Z,0
2016-08-22T00:37:56.031Z,0
2016-08-22T00:38:55.861Z,0
2016-08-22T00:39:55.880Z,0
2016-08-22T00:40:55.885Z,0
2016-08-22T00:41:56.027Z,0
2016-08-22T00:42:55.829Z,0
2016-08-22T00:43:55.809Z,0
2016-08-22T00:44:55.814Z,0
2016-08-22T00:45:56.179Z,0
2016-08-22T00:46:56.777Z,0
2016-08-22T00:47:56.284Z,0
2016-08-22T00:48:56.963Z,0
2016-08-22T00:49:56.786Z,0
2016-08-22T00:50:55.907Z,0
2016-08-22T00:51:55.896Z,0
2016-08-22T00:52:55.768Z,0
2016-08-22T00:53:55.776Z,0
2016-08-22T00:54:55.747Z,0
2016-08-22T00:55:57.761Z,0
2016-08-22T00:56:55.770Z,0
2016-08-22T00:57:55.783Z,0
2016-08-22T00:58:55.754Z,0
2016-08-22T00:59:56.465Z,0
2016-08-22T01:00:55.760Z,0
2016-08-22T01:01:55.754Z,0
2016-08-22T01:02:55.740Z,0
2016-08-22T01:03:55.732Z,0
2016-08-22T01:04:55.699Z,0
2016-08-22T01:05:55.747Z,0
2016-08-22T01:06:56.427Z,0
2016-08-22T01:07:55.703Z,0
2016-08-22T01:08:55.788Z,0
2016-08-22T01:09:55.895Z,0
2016-08-22T01:10:55.715Z,0
2016-08-22T01:11:55.655Z,0
2016-08-22T01:12:55.671Z,0
2016-08-22T01:13:55.661Z,0
2016-08-22T01:14:55.928Z,0
2016-08-22T01:15:55.653Z,0
2016-08-22T01:16:56.412Z,0
2016-08-22T01:17:55.643Z,0
2016-08-22T01:18:55.652Z,0
2016-08-22T01:19:55.678Z,0
2016-08-22T01:20:55.686Z,0
2016-08-22T01:21:56.765Z,0
2016-08-22T01:22:55.826Z,0
2016-08-22T01:23:55.606Z,0
2016-08-22T01:24:55.615Z,0
2016-08-22T01:25:55.593Z,0
2016-08-22T01:26:56.335Z,0
2016-08-22T01:27:55.618Z,0
2016-08-22T01:28:55.627Z,0
2016-08-22T01:29:55.618Z,0
2016-08-22T01:30:55.586Z,0
2016-08-22T01:31:56.922Z,0
2016-08-22T01:32:55.544Z,0
2016-08-22T01:33:56.264Z,0
2016-08-22T01:34:55.548Z,0
2016-08-22T01:35:55.552Z,0
2016-08-22T01:36:55.533Z,0
2016-08-22T01:37:55.536Z,0
2016-08-22T01:39:11.360Z,0
2016-08-22T01:39:55.550Z,0
2016-08-22T01:40:55.521Z,0
2016-08-22T01:41:55.529Z,0
2016-08-22T01:42:55.501Z,0
2016-08-22T01:43:55.507Z,0
2016-08-22T01:44:55.470Z,0
2016-08-22T01:45:56.163Z,0
2016-08-22T01:46:55.457Z,0
2016-08-22T01:47:55.444Z,0
2016-08-22T01:48:55.464Z,0
2016-08-22T01:49:55.470Z,0
2016-08-22T01:50:55.448Z,0
2016-08-22T01:51:56.128Z,0
2016-08-22T01:52:55.555Z,0
2016-08-22T01:53:55.554Z,0
2016-08-22T01:54:55.460Z,0
2016-08-22T01:55:55.409Z,0
2016-08-22T01:56:55.408Z,0
2016-08-22T01:57:55.402Z,0
2016-08-22T01:58:55.390Z,0
2016-08-22T01:59:55.369Z,0
2016-08-22T02:00:55.373Z,0
2016-08-22T02:01:55.370Z,0
2016-08-22T02:02:55.658Z,0
2016-08-22T02:03:55.411Z,0
2016-08-22T02:04:55.455Z,0
2016-08-22T02:05:55.360Z,0
2016-08-22T02:06:55.366Z,0
2016-08-22T02:07:55.477Z,0
2016-08-22T02:08:55.491Z,0
2016-08-22T02:09:55.509Z,0
2016-08-22T02:10:55.406Z,0
2016-08-22T02:11:55.448Z,0
2016-08-22T02:12:55.427Z,0
2016-08-22T02:13:55.477Z,0
2016-08-22T02:14:55.409Z,0
2016-08-22T02:15:55.377Z,0
2016-08-22T02:16:55.428Z,0
2016-08-22T02:17:55.301Z,0
2016-08-22T02:18:55.282Z,0
2016-08-22T02:19:55.273Z,0
2016-08-22T02:20:55.410Z,0
2016-08-22T02:21:55.510Z,0
2016-08-22T02:22:55.465Z,0
2016-08-22T02:23:55.296Z,0
2016-08-22T02:24:55.307Z,0
2016-08-22T02:25:55.259Z,0
2016-08-22T02:26:55.227Z,0
2016-08-22T02:27:55.237Z,0
2016-08-22T02:28:55.231Z,0
2016-08-22T02:29:55.250Z,0
2016-08-22T02:30:55.958Z,0
2016-08-22T02:31:55.260Z,0
2016-08-22T02:32:55.257Z,0
2016-08-22T02:33:55.999Z,0
2016-08-22T02:34:55.221Z,0
2016-08-22T02:35:55.185Z,0
2016-08-22T02:36:55.180Z,0
2016-08-22T02:37:55.181Z,0
2016-08-22T02:38:55.193Z,0
2016-08-22T02:39:55.933Z,0
2016-08-22T02:40:55.244Z,0
2016-08-22T02:41:55.227Z,0
2016-08-22T02:42:55.233Z,0
2016-08-22T02:43:55.132Z,0
2016-08-22T02:44:55.153Z,0
2016-08-22T02:45:55.145Z,0
2016-08-22T02:46:55.171Z,0
2016-08-22T02:47:55.179Z,0
2016-08-22T02:48:55.188Z,0
2016-08-22T02:49:55.191Z,0
2016-08-22T02:50:56.527Z,0
2016-08-22T02:51:55.358Z,0
2016-08-22T02:52:55.215Z,0
2016-08-22T02:53:55.210Z,0
2016-08-22T02:54:55.246Z,0
2016-08-22T02:55:55.116Z,0
2016-08-22T02:56:55.127Z,0
2016-08-22T02:57:55.140Z,0
2016-08-22T02:58:55.174Z,0
2016-08-22T02:59:55.155Z,0
2016-08-22T03:00:55.151Z,0
2016-08-22T03:01:55.317Z,0
2016-08-22T03:02:55.197Z,0
2016-08-22T03:03:55.114Z,0
2016-08-22T03:04:55.109Z,0
2016-08-22T03:05:55.148Z,0
2016-08-22T03:06:55.169Z,0
2016-08-22T03:07:55.134Z,0
2016-08-22T03:08:55.781Z,0
2016-08-22T03:09:55.062Z,0
2016-08-22T03:10:55.087Z,0
2016-08-22T03:11:55.725Z,0
2016-08-22T03:12:55.086Z,0
2016-08-22T03:13:55.083Z,0
2016-08-22T03:14:55.092Z,0
2016-08-22T03:15:55.099Z,0
2016-08-22T03:16:55.098Z,0
2016-08-22T03:17:55.110Z,0
2016-08-22T03:18:55.141Z,0
2016-08-22T03:19:55.131Z,0
2016-08-22T03:20:55.027Z,0
2016-08-22T03:21:55.042Z,0
2016-08-22T03:22:55.074Z,0
2016-08-22T03:23:55.086Z,0
2016-08-22T03:24:55.099Z,0
2016-08-22T03:25:55.102Z,0
2016-08-22T03:26:55.093Z,0
2016-08-22T03:27:55.104Z,0
2016-08-22T03:28:55.110Z,0
2016-08-22T03:29:55.117Z,0
2016-08-22T03:30:55.039Z,0
2016-08-22T03:31:55.046Z,0
2016-08-22T03:32:55.714Z,0
2016-08-22T03:33:55.028Z,0
2016-08-22T03:34:55.059Z,0
2016-08-22T03:35:55.630Z,0
2016-08-22T03:36:55.077Z,0
2016-08-22T03:37:55.086Z,0
2016-08-22T03:38:55.100Z,0
2016-08-22T03:39:54.995Z,0
2016-08-22T03:40:55.019Z,0
2016-08-22T03:41:55.050Z,0
2016-08-22T03:42:55.030Z,0
2016-08-22T03:43:55.051Z,0
2016-08-22T03:44:55.092Z,0
2016-08-22T03:45:55.135Z,0
2016-08-22T03:46:55.048Z,0
2016-08-22T03:47:55.091Z,0
2016-08-22T03:48:55.094Z,0
2016-08-22T03:49:54.967Z,0
2016-08-22T03:50:54.966Z,0
2016-08-22T03:51:54.989Z,0
2016-08-22T03:52:55.244Z,0
2016-08-22T03:53:55.077Z,0
2016-08-22T03:54:55.718Z,0
2016-08-22T03:55:55.005Z,0
2016-08-22T03:56:55.073Z,0
2016-08-22T03:57:54.982Z,0
2016-08-22T03:58:54.984Z,0
2016-08-22T03:59:54.980Z,0
2016-08-22T04:00:55.708Z,0
2016-08-22T04:01:55.044Z,0
2016-08-22T04:02:54.972Z,0
2016-08-22T04:03:54.966Z,0
2016-08-22T04:04:55.051Z,0
2016-08-22T04:05:55.061Z,0
2016-08-22T04:06:55.007Z,0
2016-08-22T04:07:54.882Z,0
2016-08-22T04:08:55.062Z,0
2016-08-22T04:09:55.033Z,0
2016-08-22T04:10:54.940Z,0
2016-08-22T04:11:55.644Z,0
2016-08-22T04:12:54.926Z,0
2016-08-22T04:13:54.835Z,0
2016-08-22T04:14:54.806Z,0
2016-08-22T04:15:54.821Z,0
2016-08-22T04:16:55.035Z,0
2016-08-22T04:17:55.020Z,0
2016-08-22T04:18:54.805Z,0
2016-08-22T04:19:54.908Z,0
2016-08-22T04:20:54.798Z,0
2016-08-22T04:21:54.796Z,0
2016-08-22T04:22:54.914Z,0
2016-08-22T04:23:54.776Z,0
2016-08-22T04:24:54.784Z,0
2016-08-22T04:25:54.796Z,5
2016-08-22T04:26:54.906Z,5
2016-08-22T04:27:54.930Z,5
2016-08-22T04:28:54.772Z,5
2016-08-22T04:29:54.789Z,5
2016-08-22T04:30:54.807Z,5
2016-08-22T04:31:54.799Z,5
2016-08-22T04:32:54.806Z,5
2016-08-22T04:33:54.806Z,5
2016-08-22T04:34:54.797Z,10
2016-08-22T04:35:54.862Z,5
2016-08-22T04:36:54.928Z,5
2016-08-22T04:37:54.776Z,5
2016-08-22T04:38:54.752Z,5
2016-08-22T04:39:54.793Z,5
2016-08-22T04:40:55.473Z,5
2016-08-22T04:41:54.735Z,5
2016-08-22T04:42:54.737Z,5
2016-08-22T04:43:54.773Z,5
2016-08-22T04:44:55.603Z,5
2016-08-22T04:45:54.780Z,5
2016-08-22T04:46:54.784Z,10
2016-08-22T04:47:54.763Z,10
2016-08-22T04:48:54.757Z,10
2016-08-22T04:49:54.766Z,10
2016-08-22T04:50:54.783Z,10
2016-08-22T04:51:54.608Z,10
2016-08-22T04:52:54.611Z,15
2016-08-22T04:53:54.801Z,10
2016-08-22T04:54:54.620Z,10
2016-08-22T04:55:54.740Z,15
2016-08-22T04:56:54.629Z,15
2016-08-22T04:57:54.632Z,15
2016-08-22T04:58:54.608Z,15
2016-08-22T04:59:54.743Z,15
2016-08-22T05:00:54.604Z,15
2016-08-22T05:01:54.955Z,20
2016-08-22T05:02:54.592Z,25
2016-08-22T05:03:54.753Z,25
2016-08-22T05:04:54.591Z,30
2016-08-22T05:05:54.593Z,30
2016-08-22T05:06:54.577Z,30
2016-08-22T05:07:54.589Z,30
2016-08-22T05:08:54.457Z,30
2016-08-22T05:09:54.436Z,30
2016-08-22T05:10:54.461Z,35
2016-08-22T05:11:54.584Z,35
2016-08-22T05:12:54.432Z,35
2016-08-22T05:13:54.448Z,35
2016-08-22T05:14:54.588Z,40
2016-08-22T05:15:54.445Z,40
2016-08-22T05:16:54.426Z,40
2016-08-22T05:17:54.360Z,45
2016-08-22T05:18:54.353Z,55
2016-08-22T05:19:54.393Z,55
2016-08-22T05:20:54.340Z,55
2016-08-22T05:21:54.374Z,55
2016-08-22T05:22:54.343Z,55
2016-08-22T05:23:54.345Z,55
2016-08-22T05:24:54.392Z,65
2016-08-22T05:25:54.374Z,70
2016-08-22T05:26:54.314Z,70
2016-08-22T05:27:54.358Z,70
2016-08-22T05:28:54.339Z,75
2016-08-22T05:29:54.364Z,80
2016-08-22T05:30:55.708Z,80
2016-08-22T05:31:55.025Z,70
2016-08-22T05:32:54.277Z,65
2016-08-22T05:33:54.278Z,55
2016-08-22T05:34:55.776Z,45
2016-08-22T05:35:54.263Z,35
2016-08-22T05:36:54.277Z,35
2016-08-22T05:37:54.285Z,30
2016-08-22T05:38:54.302Z,25
2016-08-22T05:39:54.294Z,30
2016-08-22T05:40:54.269Z,35
2016-08-22T05:41:54.295Z,50
2016-08-22T05:42:54.241Z,55
2016-08-22T05:43:54.228Z,65
2016-08-22T05:44:54.221Z,75
2016-08-22T05:45:54.220Z,80
2016-08-22T05:46:54.256Z,80
2016-08-22T05:47:54.357Z,80
2016-08-22T05:48:54.269Z,80
2016-08-22T05:49:54.259Z,75
2016-08-22T05:50:54.260Z,75
2016-08-22T05:51:54.237Z,80
2016-08-22T05:52:54.175Z,80
2016-08-22T05:53:54.209Z,90
2016-08-22T05:54:54.184Z,100
2016-08-22T05:55:54.212Z,105
2016-08-22T05:56:54.191Z,110
2016-08-22T05:57:54.970Z,115
2016-08-22T05:58:54.874Z,110
2016-08-22T05:59:54.178Z,115
2016-08-22T06:00:54.207Z,120
2016-08-22T06:01:54.246Z,130
2016-08-22T06:02:54.194Z,140
2016-08-22T06:03:54.140Z,140
2016-08-22T06:04:54.122Z,140
2016-08-22T06:05:54.117Z,140
2016-08-22T06:06:54.935Z,145
2016-08-22T06:07:54.141Z,145
2016-08-22T06:08:54.134Z,140
2016-08-22T06:09:54.139Z,125
2016-08-22T06:10:54.111Z,120
2016-08-22T06:11:54.131Z,115
2016-08-22T06:12:54.168Z,115
2016-08-22T06:13:54.145Z,115
2016-08-22T06:14:54.123Z,110
2016-08-22T06:15:54.073Z,110
2016-08-22T06:16:54.092Z,120
2016-08-22T06:17:54.080Z,135
2016-08-22T06:18:54.084Z,140
2016-08-22T06:19:54.873Z,145
2016-08-22T06:20:54.093Z,145
2016-08-22T06:21:54.075Z,155
2016-08-22T06:22:54.120Z,155
2016-08-22T06:23:54.083Z,150
2016-08-22T06:24:54.022Z,155
2016-08-22T06:25:54.038Z,155
2016-08-22T06:26:54.043Z,155
2016-08-22T06:27:54.055Z,140
2016-08-22T06:28:54.014Z,140
2016-08-22T06:29:54.029Z,145
2016-08-22T06:30:54.042Z,155
2016-08-22T06:31:54.041Z,155
2016-08-22T06:32:54.010Z,150
2016-08-22T06:33:54.075Z,150
2016-08-22T06:34:54.022Z,150
2016-08-22T06:35:54.057Z,140
2016-08-22T06:36:54.920Z,120
2016-08-22T06:37:54.062Z,110
2016-08-22T06:38:54.005Z,100
2016-08-22T06:39:53.959Z,100
2016-08-22T06:40:53.988Z,110
2016-08-22T06:41:54.089Z,115
2016-08-22T06:42:54.016Z,120
2016-08-22T06:43:53.957Z,125
2016-08-22T06:44:54.844Z,125
2016-08-22T06:45:53.977Z,120
2016-08-22T06:46:53.958Z,120
2016-08-22T06:47:53.945Z,120
2016-08-22T06:48:53.950Z,130
2016-08-22T06:49:53.949Z,140
2016-08-22T06:50:53.921Z,130
2016-08-22T06:51:53.943Z,115
2016-08-22T06:52:53.937Z,115
2016-08-22T06:53:53.913Z,110
2016-08-22T06:54:53.918Z,125
2016-08-22T06:55:53.908Z,150
2016-08-22T06:56:53.945Z,155
2016-08-22T06:57:53.918Z,155
2016-08-22T06:58:54.112Z,155
2016-08-22T06:59:53.917Z,160
2016-08-22T07:00:53.920Z,170
2016-08-22T07:01:53.897Z,165
2016-08-22T07:02:54.855Z,160
2016-08-22T07:03:53.896Z,160
2016-08-22T07:04:53.870Z,135
2016-08-22T07:05:53.900Z,110
2016-08-22T07:06:53.904Z,115
2016-08-22T07:07:53.884Z,110
2016-08-22T07:08:53.904Z,90
2016-08-22T07:09:53.862Z,85
2016-08-22T07:10:53.855Z,90
2016-08-22T07:11:53.862Z,125
2016-08-22T07:12:53.871Z,160
2016-08-22T07:13:53.885Z,180
2016-08-22T07:14:53.857Z,205
2016-08-22T07:15:53.828Z,250
2016-08-22T07:16:53.851Z,265
2016-08-22T07:17:53.836Z,260
2016-08-22T07:18:53.824Z,255
2016-08-22T07:19:54.792Z,250
2016-08-22T07:20:53.819Z,240
2016-08-22T07:21:53.821Z,235
2016-08-22T07:22:54.819Z,235
2016-08-22T07:23:53.847Z,250
2016-08-22T07:24:53.824Z,255
2016-08-22T07:25:53.812Z,255
2016-08-22T07:26:53.823Z,245
2016-08-22T07:27:54.007Z,255
2016-08-22T07:28:53.784Z,250
2016-08-22T07:29:53.782Z,240
2016-08-22T07:30:53.791Z,245
2016-08-22T07:31:53.791Z,230
2016-08-22T07:32:53.801Z,230
2016-08-22T07:33:53.805Z,215
2016-08-22T07:34:53.858Z,205
2016-08-22T07:35:53.786Z,195
2016-08-22T07:36:53.767Z,190
2016-08-22T07:37:53.756Z,210
2016-08-22T07:38:53.797Z,200
2016-08-22T07:39:53.788Z,220
2016-08-22T07:40:53.793Z,225
2016-08-22T07:41:54.736Z,215
2016-08-22T07:42:53.760Z,180
2016-08-22T07:43:53.757Z,150
2016-08-22T07:44:53.760Z,155
2016-08-22T07:45:53.746Z,160
2016-08-22T07:46:53.746Z,145
2016-08-22T07:47:53.735Z,135
2016-08-22T07:48:53.743Z,130
2016-08-22T07:49:53.792Z,130
2016-08-22T07:50:53.792Z,145
2016-08-22T07:51:53.729Z,145
2016-08-22T07:52:53.779Z,140
2016-08-22T07:53:53.755Z,145
2016-08-22T07:54:53.763Z,165
2016-08-22T07:55:53.710Z,175
2016-08-22T07:56:53.700Z,170
2016-08-22T07:57:53.733Z,160
2016-08-22T07:58:53.721Z,170
2016-08-22T07:59:53.696Z,195
2016-08-22T08:00:53.692Z,215
2016-08-22T08:01:53.705Z,235
2016-08-22T08:02:53.689Z,245
2016-08-22T08:03:53.888Z,225
2016-08-22T08:04:53.688Z,210
2016-08-22T08:05:53.679Z,200
2016-08-22T08:06:53.680Z,215
2016-08-22T08:07:53.675Z,250
2016-08-22T08:08:53.682Z,265
2016-08-22T08:09:53.705Z,280
2016-08-22T08:10:53.670Z,295
2016-08-22T08:11:53.683Z,265
2016-08-22T08:12:53.665Z,210
2016-08-22T08:13:53.692Z,190
2016-08-22T08:14:53.681Z,195
2016-08-22T08:15:53.664Z,200
2016-08-22T08:16:53.675Z,140
2016-08-22T08:17:53.657Z,85
2016-08-22T08:18:54.415Z,60
2016-08-22T08:19:53.663Z,65
2016-08-22T08:20:53.667Z,85
2016-08-22T08:21:53.648Z,105
2016-08-22T08:22:53.654Z,135
2016-08-22T08:23:53.666Z,165
2016-08-22T08:24:53.701Z,185
2016-08-22T08:25:53.691Z,205
2016-08-22T08:26:53.641Z,220
2016-08-22T08:27:53.645Z,220
2016-08-22T08:28:53.621Z,205
2016-08-22T08:29:53.667Z,165
2016-08-22T08:30:53.637Z,135
2016-08-22T08:31:53.644Z,110
2016-08-22T08:32:53.740Z,80
2016-08-22T08:33:53.665Z,60
2016-08-22T08:34:53.694Z,55
2016-08-22T08:35:53.715Z,50
2016-08-22T08:36:53.732Z,55
2016-08-22T08:37:53.700Z,65
2016-08-22T08:38:53.663Z,75
2016-08-22T08:39:53.681Z,80
2016-08-22T08:40:53.678Z,80
2016-08-22T08:41:53.645Z,85
2016-08-22T08:42:53.637Z,95
2016-08-22T08:43:53.658Z,100
2016-08-22T08:44:53.673Z,115
2016-08-22T08:45:53.680Z,135
2016-08-22T08:46:53.776Z,155
2016-08-22T08:47:53.637Z,185
2016-08-22T08:48:54.410Z,210
2016-08-22T08:49:53.569Z,245
2016-08-22T08:50:53.572Z,225
2016-08-22T08:51:53.577Z,210
2016-08-22T08:52:53.635Z,165
2016-08-22T08:53:53.592Z,155
2016-08-22T08:54:53.671Z,155
2016-08-22T08:55:53.610Z,150
2016-08-22T08:56:53.638Z,125
2016-08-22T08:57:53.570Z,135
2016-08-22T08:58:53.601Z,115
2016-08-22T08:59:53.716Z,115
2016-08-22T09:00:53.558Z,110
2016-08-22T09:01:53.546Z,125
2016-08-22T09:02:53.563Z,145
2016-08-22T09:03:53.585Z,150
2016-08-22T09:04:53.559Z,155
2016-08-22T09:05:53.583Z,165
2016-08-22T09:06:53.578Z,185
2016-08-22T09:07:53.540Z,235
2016-08-22T09:08:53.537Z,285
2016-08-22T09:09:53.601Z,315
2016-08-22T09:10:53.529Z,315
2016-08-22T09:11:54.290Z,305
2016-08-22T09:12:53.523Z,305
2016-08-22T09:13:54.706Z,285
2016-08-22T09:14:53.532Z,235
2016-08-22T09:15:53.504Z,200
2016-08-22T09:16:53.555Z,200
2016-08-22T09:17:53.571Z,230
2016-08-22T09:18:53.572Z,265
2016-08-22T09:19:53.580Z,280
2016-08-22T09:20:53.529Z,230
2016-08-22T09:21:53.505Z,215
2016-08-22T09:22:53.510Z,235
2016-08-22T09:23:53.502Z,215
2016-08-22T09:24:53.515Z,225
2016-08-22T09:25:53.493Z,255
2016-08-22T09:26:53.477Z,270
2016-08-22T09:27:53.528Z,285
2016-08-22T09:28:53.502Z,285
2016-08-22T09:29:53.508Z,265
2016-08-22T09:30:53.491Z,205
2016-08-22T09:31:53.494Z,205
2016-08-22T09:32:53.478Z,205
2016-08-22T09:33:53.570Z,215
2016-08-22T09:34:53.559Z,230
2016-08-22T09:35:53.520Z,235
2016-08-22T09:36:54.330Z,280
2016-08-22T09:37:53.513Z,275
2016-08-22T09:38:54.336Z,225
2016-08-22T09:39:54.526Z,170
2016-08-22T09:40:54.556Z,140
2016-08-22T09:41:53.465Z,135
2016-08-22T09:42:53.464Z,155
2016-08-22T09:43:53.468Z,170
2016-08-22T09:44:53.549Z,170
2016-08-22T09:45:53.514Z,170
2016-08-22T09:46:53.675Z,190
2016-08-22T09:47:53.480Z,220
2016-08-22T09:48:53.666Z,245
2016-08-22T09:49:53.528Z,270
2016-08-22T09:50:53.563Z,265
2016-08-22T09:51:53.693Z,270
2016-08-22T09:52:53.604Z,240
2016-08-22T09:53:53.582Z,250
2016-08-22T09:54:53.482Z,240
2016-08-22T09:55:53.469Z,225
2016-08-22T09:56:53.447Z,215
2016-08-22T09:57:53.531Z,205
2016-08-22T09:58:53.478Z,200
2016-08-22T09:59:53.458Z,205
2016-08-22T10:00:53.451Z,220
2016-08-22T10:01:53.453Z,235
2016-08-22T10:02:53.448Z,245
2016-08-22T10:03:53.475Z,230
2016-08-22T10:04:53.446Z,210
2016-08-22T10:05:53.423Z,215
2016-08-22T10:06:53.424Z,230
2016-08-22T10:07:53.433Z,230
2016-08-22T10:08:53.538Z,230
2016-08-22T10:09:54.726Z,235
2016-08-22T10:10:53.467Z,225
2016-08-22T10:11:53.450Z,225
2016-08-22T10:12:53.441Z,235
2016-08-22T10:13:53.428Z,230
2016-08-22T10:14:53.445Z,230
2016-08-22T10:15:53.482Z,230
2016-08-22T10:16:53.476Z,230
2016-08-22T10:17:53.485Z,225
2016-08-22T10:18:53.437Z,230
2016-08-22T10:19:53.421Z,210
2016-08-22T10:20:53.422Z,175
2016-08-22T10:21:53.417Z,130
2016-08-22T10:22:53.413Z,110
2016-08-22T10:23:53.430Z,110
2016-08-22T10:24:53.425Z,115
2016-08-22T10:25:53.476Z,120
2016-08-22T10:26:53.408Z,130
2016-08-22T10:27:53.483Z,130
2016-08-22T10:28:53.497Z,135
2016-08-22T10:29:53.443Z,135
2016-08-22T10:30:53.417Z,135
2016-08-22T10:31:53.452Z,140
2016-08-22T10:32:53.396Z,145
2016-08-22T10:33:53.417Z,150
2016-08-22T10:34:53.421Z,140
2016-08-22T10:35:53.442Z,125
2016-08-22T10:36:54.458Z,130
2016-08-22T10:37:53.505Z,125
2016-08-22T10:38:53.456Z,140
2016-08-22T10:39:53.432Z,155
2016-08-22T10:40:53.418Z,170
2016-08-22T10:41:54.334Z,185
2016-08-22T10:42:53.384Z,190
2016-08-22T10:43:53.378Z,195
2016-08-22T10:44:54.363Z,200
2016-08-22T10:45:54.111Z,215
2016-08-22T10:46:53.558Z,215
2016-08-22T10:47:53.501Z,225
2016-08-22T10:48:53.420Z,245
2016-08-22T10:49:53.454Z,240
2016-08-22T10:50:53.489Z,230
2016-08-22T10:51:53.382Z,240
2016-08-22T10:52:53.359Z,210
2016-08-22T10:53:53.369Z,165
2016-08-22T10:54:53.414Z,170
2016-08-22T10:55:53.352Z,210
2016-08-22T10:56:53.439Z,220
2016-08-22T10:57:53.449Z,170
2016-08-22T10:58:53.412Z,135
2016-08-22T10:59:53.384Z,105
2016-08-22T11:00:53.386Z,100
2016-08-22T11:01:53.421Z,100
2016-08-22T11:02:54.105Z,110
2016-08-22T11:03:53.398Z,140
2016-08-22T11:04:53.418Z,130
2016-08-22T11:05:54.255Z,110
2016-08-22T11:06:53.352Z,110
2016-08-22T11:07:53.384Z,110
2016-08-22T11:08:53.428Z,120
2016-08-22T11:09:53.409Z,125
2016-08-22T11:10:53.390Z,125
2016-08-22T11:11:54.101Z,130
2016-08-22T11:12:53.413Z,130
2016-08-22T11:13:53.404Z,130
2016-08-22T11:14:53.430Z,140
2016-08-22T11:15:53.377Z,170
2016-08-22T11:16:53.337Z,220
2016-08-22T11:17:53.395Z,260
2016-08-22T11:18:53.407Z,305
2016-08-22T11:19:53.376Z,315
2016-08-22T11:20:53.330Z,295
2016-08-22T11:21:54.112Z,290
2016-08-22T11:22:53.423Z,265
2016-08-22T11:23:54.029Z,280
2016-08-22T11:24:53.389Z,280
2016-08-22T11:25:53.355Z,230
2016-08-22T11:26:53.376Z,200
2016-08-22T11:27:53.398Z,175
2016-08-22T11:28:53.355Z,155
2016-08-22T11:29:53.393Z,125
2016-08-22T11:30:53.385Z,105
2016-08-22T11:31:53.382Z,105
2016-08-22T11:32:53.313Z,100
2016-08-22T11:33:53.359Z,100
2016-08-22T11:34:53.519Z,105
2016-08-22T11:35:53.359Z,110
2016-08-22T11:36:53.315Z,125
2016-08-22T11:37:53.323Z,145
2016-08-22T11:38:53.313Z,190
2016-08-22T11:39:53.388Z,225
2016-08-22T11:40:53.379Z,260
2016-08-22T11:41:53.355Z,285
2016-08-22T11:42:53.362Z,295
2016-08-22T11:43:53.345Z,310
2016-08-22T11:44:53.354Z,280
2016-08-22T11:45:53.344Z,270
2016-08-22T11:46:53.290Z,250
2016-08-22T11:47:53.310Z,210
2016-08-22T11:48:53.364Z,180
2016-08-22T11:49:53.348Z,155
2016-08-22T11:50:53.350Z,160
2016-08-22T11:51:53.363Z,175
2016-08-22T11:52:53.354Z,190
2016-08-22T11:53:53.371Z,145
2016-08-22T11:54:54.057Z,115
2016-08-22T11:55:53.293Z,110
2016-08-22T11:56:53.300Z,110
2016-08-22T11:57:53.326Z,95
2016-08-22T11:58:53.350Z,90
2016-08-22T11:59:53.399Z,85
2016-08-22T12:00:53.300Z,100
2016-08-22T12:01:53.288Z,100
2016-08-22T12:02:53.391Z,105
2016-08-22T12:03:53.391Z,105
2016-08-22T12:04:53.375Z,100
2016-08-22T12:05:53.412Z,90
2016-08-22T12:06:53.287Z,90
2016-08-22T12:07:53.360Z,90
2016-08-22T12:08:53.349Z,90
2016-08-22T12:09:53.333Z,90
2016-08-22T12:10:53.319Z,90
2016-08-22T12:11:53.347Z,90
2016-08-22T12:12:53.364Z,90
2016-08-22T12:13:53.350Z,90
2016-08-22T12:14:53.276Z,90
2016-08-22T12:15:53.279Z,90
2016-08-22T12:16:53.287Z,90
2016-08-22T12:17:53.365Z,90
2016-08-22T12:18:54.200Z,90
2016-08-22T12:19:53.299Z,90
2016-08-22T12:20:53.384Z,90
2016-08-22T12:21:53.283Z,90
2016-08-22T12:22:53.260Z,80
2016-08-22T12:23:53.450Z,85
2016-08-22T12:24:53.431Z,95
2016-08-22T12:25:54.150Z,100
2016-08-22T12:26:53.365Z,110
2016-08-22T12:27:53.321Z,120
2016-08-22T12:28:53.370Z,130
2016-08-22T12:29:53.301Z,125
2016-08-22T12:30:53.384Z,125
2016-08-22T12:31:53.361Z,130
2016-08-22T12:32:53.263Z,145
2016-08-22T12:33:53.298Z,150
2016-08-22T12:34:53.300Z,170
2016-08-22T12:35:53.275Z,200
2016-08-22T12:36:53.285Z,190
2016-08-22T12:37:54.190Z,135
2016-08-22T12:38:53.355Z,115
2016-08-22T12:39:53.368Z,105
2016-08-22T12:40:53.329Z,110
2016-08-22T12:41:53.351Z,90
2016-08-22T12:42:53.383Z,85
2016-08-22T12:43:53.319Z,85
2016-08-22T12:44:53.314Z,80
2016-08-22T12:45:53.350Z,75
2016-08-22T12:46:53.952Z,90
2016-08-22T12:47:53.936Z,95
2016-08-22T12:48:53.279Z,95
2016-08-22T12:49:53.299Z,95
2016-08-22T12:50:53.340Z,95
2016-08-22T12:51:53.292Z,90
2016-08-22T12:52:53.494Z,105
2016-08-22T12:53:53.254Z,105
2016-08-22T12:54:53.329Z,90
2016-08-22T12:55:53.948Z,90
2016-08-22T12:56:53.244Z,90
2016-08-22T12:57:53.294Z,90
2016-08-22T12:58:53.920Z,90
2016-08-22T12:59:53.198Z,85
2016-08-22T13:00:53.215Z,85
2016-08-22T13:01:53.216Z,85
2016-08-22T13:02:53.341Z,85
2016-08-22T13:03:53.301Z,85
2016-08-22T13:04:53.273Z,85
2016-08-22T13:05:53.296Z,85
2016-08-22T13:06:53.249Z,85
2016-08-22T13:07:55.363Z,85
2016-08-22T13:08:53.220Z,85
2016-08-22T13:09:53.293Z,75
2016-08-22T13:10:53.229Z,75
2016-08-22T13:11:53.193Z,75
2016-08-22T13:12:53.191Z,80
2016-08-22T13:13:53.196Z,85
2016-08-22T13:14:53.203Z,80
2016-08-22T13:15:53.279Z,85
2016-08-22T13:16:53.179Z,85
2016-08-22T13:17:53.225Z,80
2016-08-22T13:18:53.197Z,90
2016-08-22T13:19:53.932Z,75
2016-08-22T13:20:53.247Z,75
2016-08-22T13:21:53.204Z,80
2016-08-22T13:22:53.199Z,85
2016-08-22T13:23:53.262Z,80
2016-08-22T13:24:53.976Z,100
2016-08-22T13:25:53.265Z,125
2016-08-22T13:26:53.183Z,130
2016-08-22T13:27:53.158Z,140
2016-08-22T13:28:53.200Z,105
2016-08-22T13:29:53.174Z,105
2016-08-22T13:30:53.293Z,100
2016-08-22T13:31:53.305Z,95
2016-08-22T13:32:53.297Z,90
2016-08-22T13:33:53.244Z,85
2016-08-22T13:34:53.269Z,85
2016-08-22T13:35:53.227Z,90
2016-08-22T13:36:53.228Z,95
2016-08-22T13:37:53.213Z,95
2016-08-22T13:38:53.249Z,90
2016-08-22T13:39:53.278Z,95
2016-08-22T13:40:53.264Z,105
2016-08-22T13:41:53.236Z,125
2016-08-22T13:42:53.234Z,145
2016-08-22T13:43:53.218Z,150
2016-08-22T13:44:53.141Z,140
2016-08-22T13:45:53.890Z,145
2016-08-22T13:46:53.137Z,120
2016-08-22T13:47:53.150Z,110
2016-08-22T13:48:53.176Z,95
2016-08-22T13:49:53.287Z,85
2016-08-22T13:50:53.132Z,90
2016-08-22T13:51:53.125Z,85
2016-08-22T13:52:53.131Z,85
2016-08-22T13:53:53.138Z,90
2016-08-22T13:54:54.362Z,85
2016-08-22T13:55:53.209Z,90
2016-08-22T13:56:53.211Z,95
2016-08-22T13:57:53.203Z,95
2016-08-22T13:58:54.424Z,95
2016-08-22T14:00:08.046Z,95
2016-08-22T14:00:53.180Z,95
2016-08-22T14:01:53.209Z,90
2016-08-22T14:02:53.816Z,90
2016-08-22T14:03:53.104Z,85
2016-08-22T14:04:53.187Z,90
2016-08-22T14:05:53.205Z,95
2016-08-22T14:06:53.100Z,100
2016-08-22T14:07:53.105Z,110
2016-08-22T14:08:53.216Z,115
2016-08-22T14:09:55.110Z,115
2016-08-22T14:10:53.121Z,105
2016-08-22T14:11:53.123Z,110